KAUM

Austin Municipal Airport

Austin, Minnesota, USA
METAR KAUM 191656Z AUTO 35009G17KT 5SM -SN CLR M17/M23 A3029 RMK AO2
Observed Flight Rules
Jan-19 @ 16:56 UTC (20 minutes ago) Marginal Visual Flight Rules
Wind Visibility Clouds Conditions
350° at 9 knots
 Gusting to 17 knots
5 miles
  • Clear skies
  • Light Snow
Temperatures Readings
Current -17°C / 1°F
Dewpoint -23°C / -9°F
Humidity 60%
Altimeter 30.29" Hg
Pressure 1025.72 hPa
Elevation 375
METAR KAUM 191656Z AUTO 35009G17KT 5SM -SN CLR M17/M23 A3029 RMK AO2
Observed Flight Rules
Jan-19 @ 16:56 UTC
(20 minutes ago)
MVFR
Wind Visibility
350° at 9 knots
 Gusting to 17 knots
5 miles
Clouds
  • Clear skies
Conditions
  • Light Snow
Temperature Dewpoint
-17°C / 1°F -23°C / -9°F
Humidity Altimeter Pressure
60% 30.29" Hg 1025.72 hPa